sensor_id;sensor_type;location;lat;lon;timestamp;P1;durP1;ratioP1;P2;durP2;ratioP2
31126;SDS011;17775;57.948;12.514;2022-12-18T00:02:17;44.58;;;14.25;;
31126;SDS011;17775;57.948;12.514;2022-12-18T00:04:44;48.53;;;15.45;;
31126;SDS011;17775;57.948;12.514;2022-12-18T00:07:11;42.75;;;14.13;;
31126;SDS011;17775;57.948;12.514;2022-12-18T00:09:39;50.03;;;13.30;;
31126;SDS011;17775;57.948;12.514;2022-12-18T00:12:06;48.63;;;14.70;;
31126;SDS011;17775;57.948;12.514;2022-12-18T00:14:41;49.80;;;14.80;;
31126;SDS011;17775;57.948;12.514;2022-12-18T00:17:07;46.00;;;13.75;;
31126;SDS011;17775;57.948;12.514;2022-12-18T00:19:34;42.60;;;14.32;;
31126;SDS011;17775;57.948;12.514;2022-12-18T00:22:01;52.38;;;17.50;;
31126;SDS011;17775;57.948;12.514;2022-12-18T00:24:28;51.78;;;16.30;;
31126;SDS011;17775;57.948;12.514;2022-12-18T00:26:54;53.03;;;16.30;;
31126;SDS011;17775;57.948;12.514;2022-12-18T00:29:21;56.15;;;17.80;;
31126;SDS011;17775;57.948;12.514;2022-12-18T00:31:47;52.65;;;16.20;;
31126;SDS011;17775;57.948;12.514;2022-12-18T00:34:14;54.08;;;14.90;;
31126;SDS011;17775;57.948;12.514;2022-12-18T00:36:41;61.85;;;17.80;;
31126;SDS011;17775;57.948;12.514;2022-12-18T00:39:08;56.47;;;17.73;;
31126;SDS011;17775;57.948;12.514;2022-12-18T00:41:35;51.33;;;15.13;;
31126;SDS011;17775;57.948;12.514;2022-12-18T00:44:20;42.10;;;14.52;;
31126;SDS011;17775;57.948;12.514;2022-12-18T00:46:47;46.63;;;12.88;;
31126;SDS011;17775;57.948;12.514;2022-12-18T00:49:16;48.67;;;13.65;;
31126;SDS011;17775;57.948;12.514;2022-12-18T00:54:11;48.22;;;13.02;;
31126;SDS011;17775;57.948;12.514;2022-12-18T00:56:41;42.95;;;10.98;;
31126;SDS011;17775;57.948;12.514;2022-12-18T00:59:15;40.38;;;12.85;;
31126;SDS011;17775;57.948;12.514;2022-12-18T01:01:41;39.83;;;11.65;;
31126;SDS011;17775;57.948;12.514;2022-12-18T01:04:09;42.67;;;12.40;;
31126;SDS011;17775;57.948;12.514;2022-12-18T01:06:35;44.15;;;10.88;;
31126;SDS011;17775;57.948;12.514;2022-12-18T01:09:02;40.45;;;11.75;;
31126;SDS011;17775;57.948;12.514;2022-12-18T01:11:28;35.03;;;11.15;;
31126;SDS011;17775;57.948;12.514;2022-12-18T01:13:55;36.50;;;11.30;;
31126;SDS011;17775;57.948;12.514;2022-12-18T01:16:22;37.80;;;12.25;;
31126;SDS011;17775;57.948;12.514;2022-12-18T01:18:51;45.17;;;10.95;;
31126;SDS011;17775;57.948;12.514;2022-12-18T01:21:18;38.63;;;10.52;;
31126;SDS011;17775;57.948;12.514;2022-12-18T01:23:44;38.72;;;10.23;;
31126;SDS011;17775;57.948;12.514;2022-12-18T01:26:12;34.78;;;11.50;;
31126;SDS011;17775;57.948;12.514;2022-12-18T01:28:39;34.20;;;10.45;;
31126;SDS011;17775;57.948;12.514;2022-12-18T01:31:20;32.38;;;10.57;;
31126;SDS011;17775;57.948;12.514;2022-12-18T01:33:46;33.45;;;10.45;;
31126;SDS011;17775;57.948;12.514;2022-12-18T01:36:23;37.47;;;11.10;;
31126;SDS011;17775;57.948;12.514;2022-12-18T01:38:50;35.95;;;10.65;;
31126;SDS011;17775;57.948;12.514;2022-12-18T01:41:22;35.40;;;9.73;;
31126;SDS011;17775;57.948;12.514;2022-12-18T01:43:56;29.35;;;9.82;;
31126;SDS011;17775;57.948;12.514;2022-12-18T01:46:23;30.55;;;8.85;;
31126;SDS011;17775;57.948;12.514;2022-12-18T01:48:53;29.10;;;9.35;;
31126;SDS011;17775;57.948;12.514;2022-12-18T01:51:22;30.90;;;9.10;;
31126;SDS011;17775;57.948;12.514;2022-12-18T01:53:48;33.30;;;9.63;;
31126;SDS011;17775;57.948;12.514;2022-12-18T01:56:16;28.00;;;8.98;;
31126;SDS011;17775;57.948;12.514;2022-12-18T01:58:50;29.30;;;8.05;;
31126;SDS011;17775;57.948;12.514;2022-12-18T02:01:17;29.33;;;8.68;;
31126;SDS011;17775;57.948;12.514;2022-12-18T02:03:44;28.85;;;8.82;;
31126;SDS011;17775;57.948;12.514;2022-12-18T02:06:20;30.30;;;8.30;;
31126;SDS011;17775;57.948;12.514;2022-12-18T02:14:28;29.30;;;9.13;;
31126;SDS011;17775;57.948;12.514;2022-12-18T02:17:18;23.85;;;7.93;;
31126;SDS011;17775;57.948;12.514;2022-12-18T02:27:57;20.02;;;7.05;;
31126;SDS011;17775;57.948;12.514;2022-12-18T02:30:26;23.38;;;7.45;;
31126;SDS011;17775;57.948;12.514;2022-12-18T02:32:53;21.45;;;6.68;;
31126;SDS011;17775;57.948;12.514;2022-12-18T02:35:22;19.85;;;6.57;;
31126;SDS011;17775;57.948;12.514;2022-12-18T02:37:50;17.83;;;6.55;;
31126;SDS011;17775;57.948;12.514;2022-12-18T02:40:17;15.20;;;6.05;;
31126;SDS011;17775;57.948;12.514;2022-12-18T02:42:46;16.75;;;6.45;;
31126;SDS011;17775;57.948;12.514;2022-12-18T02:45:12;16.95;;;6.20;;
31126;SDS011;17775;57.948;12.514;2022-12-18T02:47:39;16.75;;;5.70;;
31126;SDS011;17775;57.948;12.514;2022-12-18T03:00:16;22.88;;;6.88;;
31126;SDS011;17775;57.948;12.514;2022-12-18T03:02:46;18.90;;;6.22;;
31126;SDS011;17775;57.948;12.514;2022-12-18T03:05:26;22.40;;;6.43;;
31126;SDS011;17775;57.948;12.514;2022-12-18T03:08:02;25.73;;;7.45;;
31126;SDS011;17775;57.948;12.514;2022-12-18T03:10:31;23.00;;;7.35;;
31126;SDS011;17775;57.948;12.514;2022-12-18T03:13:00;33.72;;;8.88;;
31126;SDS011;17775;57.948;12.514;2022-12-18T03:15:28;27.75;;;7.95;;
31126;SDS011;17775;57.948;12.514;2022-12-18T03:18:04;31.60;;;9.43;;
31126;SDS011;17775;57.948;12.514;2022-12-18T03:20:34;37.97;;;9.27;;
31126;SDS011;17775;57.948;12.514;2022-12-18T03:23:07;33.00;;;10.45;;
31126;SDS011;17775;57.948;12.514;2022-12-18T03:25:36;45.33;;;11.10;;
31126;SDS011;17775;57.948;12.514;2022-12-18T03:28:05;36.45;;;11.75;;
31126;SDS011;17775;57.948;12.514;2022-12-18T03:30:32;36.53;;;11.27;;
31126;SDS011;17775;57.948;12.514;2022-12-18T03:33:14;37.58;;;11.68;;
31126;SDS011;17775;57.948;12.514;2022-12-18T03:35:46;47.10;;;13.07;;
31126;SDS011;17775;57.948;12.514;2022-12-18T03:38:13;43.67;;;11.55;;
31126;SDS011;17775;57.948;12.514;2022-12-18T03:40:44;41.33;;;12.30;;
31126;SDS011;17775;57.948;12.514;2022-12-18T03:46:02;43.63;;;13.10;;
31126;SDS011;17775;57.948;12.514;2022-12-18T03:48:32;58.95;;;15.07;;
31126;SDS011;17775;57.948;12.514;2022-12-18T03:51:08;49.22;;;14.70;;
31126;SDS011;17775;57.948;12.514;2022-12-18T03:56:07;57.15;;;15.43;;
31126;SDS011;17775;57.948;12.514;2022-12-18T03:58:36;50.17;;;13.23;;
31126;SDS011;17775;57.948;12.514;2022-12-18T04:01:04;56.08;;;14.63;;
31126;SDS011;17775;57.948;12.514;2022-12-18T04:03:38;57.97;;;14.90;;
31126;SDS011;17775;57.948;12.514;2022-12-18T04:06:06;57.97;;;14.27;;
31126;SDS011;17775;57.948;12.514;2022-12-18T04:08:33;65.82;;;16.30;;
31126;SDS011;17775;57.948;12.514;2022-12-18T04:11:01;54.85;;;15.38;;
31126;SDS011;17775;57.948;12.514;2022-12-18T04:13:29;62.53;;;16.42;;
31126;SDS011;17775;57.948;12.514;2022-12-18T04:15:56;68.65;;;16.00;;
31126;SDS011;17775;57.948;12.514;2022-12-18T04:18:22;66.35;;;16.35;;
31126;SDS011;17775;57.948;12.514;2022-12-18T04:20:49;78.97;;;17.30;;
31126;SDS011;17775;57.948;12.514;2022-12-18T04:23:16;61.50;;;15.20;;
31126;SDS011;17775;57.948;12.514;2022-12-18T04:25:42;80.80;;;18.13;;
31126;SDS011;17775;57.948;12.514;2022-12-18T04:28:09;84.13;;;17.42;;
31126;SDS011;17775;57.948;12.514;2022-12-18T04:30:35;81.15;;;18.58;;
31126;SDS011;17775;57.948;12.514;2022-12-18T04:33:08;79.10;;;16.85;;
31126;SDS011;17775;57.948;12.514;2022-12-18T04:35:35;67.00;;;16.73;;
31126;SDS011;17775;57.948;12.514;2022-12-18T04:38:01;71.28;;;16.08;;
31126;SDS011;17775;57.948;12.514;2022-12-18T04:40:28;67.28;;;17.77;;
31126;SDS011;17775;57.948;12.514;2022-12-18T04:42:54;70.70;;;17.88;;
31126;SDS011;17775;57.948;12.514;2022-12-18T04:45:21;84.00;;;18.80;;
31126;SDS011;17775;57.948;12.514;2022-12-18T04:47:47;77.47;;;17.00;;
31126;SDS011;17775;57.948;12.514;2022-12-18T04:50:17;84.30;;;16.80;;
31126;SDS011;17775;57.948;12.514;2022-12-18T04:52:43;71.85;;;16.67;;
31126;SDS011;17775;57.948;12.514;2022-12-18T04:55:10;82.70;;;18.05;;
31126;SDS011;17775;57.948;12.514;2022-12-18T04:57:36;72.18;;;16.30;;
31126;SDS011;17775;57.948;12.514;2022-12-18T05:00:04;81.70;;;17.88;;
31126;SDS011;17775;57.948;12.514;2022-12-18T05:02:32;72.20;;;17.20;;
31126;SDS011;17775;57.948;12.514;2022-12-18T05:04:59;79.32;;;16.70;;
31126;SDS011;17775;57.948;12.514;2022-12-18T05:07:32;94.40;;;17.83;;
31126;SDS011;17775;57.948;12.514;2022-12-18T05:09:59;77.30;;;18.50;;
31126;SDS011;17775;57.948;12.514;2022-12-18T05:12:26;66.53;;;15.70;;
31126;SDS011;17775;57.948;12.514;2022-12-18T05:14:52;78.18;;;17.98;;
31126;SDS011;17775;57.948;12.514;2022-12-18T05:17:19;81.43;;;16.77;;
31126;SDS011;17775;57.948;12.514;2022-12-18T05:19:46;81.57;;;17.52;;
31126;SDS011;17775;57.948;12.514;2022-12-18T05:22:15;79.55;;;16.23;;
31126;SDS011;17775;57.948;12.514;2022-12-18T05:24:42;72.13;;;17.88;;
31126;SDS011;17775;57.948;12.514;2022-12-18T05:27:08;78.78;;;17.10;;
31126;SDS011;17775;57.948;12.514;2022-12-18T05:29:35;91.97;;;19.92;;
31126;SDS011;17775;57.948;12.514;2022-12-18T05:32:01;78.28;;;16.73;;
31126;SDS011;17775;57.948;12.514;2022-12-18T05:34:28;72.38;;;18.70;;
31126;SDS011;17775;57.948;12.514;2022-12-18T05:36:54;62.22;;;14.48;;
31126;SDS011;17775;57.948;12.514;2022-12-18T05:39:21;74.57;;;15.10;;
31126;SDS011;17775;57.948;12.514;2022-12-18T05:41:48;67.97;;;16.40;;
31126;SDS011;17775;57.948;12.514;2022-12-18T05:44:14;69.47;;;15.07;;
31126;SDS011;17775;57.948;12.514;2022-12-18T05:46:41;67.05;;;14.10;;
31126;SDS011;17775;57.948;12.514;2022-12-18T05:49:07;75.18;;;16.35;;
31126;SDS011;17775;57.948;12.514;2022-12-18T05:51:37;60.15;;;13.68;;
31126;SDS011;17775;57.948;12.514;2022-12-18T05:54:04;59.13;;;13.55;;
31126;SDS011;17775;57.948;12.514;2022-12-18T05:56:31;53.67;;;12.95;;
31126;SDS011;17775;57.948;12.514;2022-12-18T05:58:58;63.25;;;13.30;;
31126;SDS011;17775;57.948;12.514;2022-12-18T06:01:25;55.42;;;12.48;;
31126;SDS011;17775;57.948;12.514;2022-12-18T06:03:52;52.20;;;12.30;;
31126;SDS011;17775;57.948;12.514;2022-12-18T06:06:20;61.53;;;13.57;;
31126;SDS011;17775;57.948;12.514;2022-12-18T06:08:47;46.53;;;11.85;;
31126;SDS011;17775;57.948;12.514;2022-12-18T06:11:16;49.88;;;12.15;;
31126;SDS011;17775;57.948;12.514;2022-12-18T06:13:42;44.95;;;11.45;;
31126;SDS011;17775;57.948;12.514;2022-12-18T06:16:09;48.35;;;12.25;;
31126;SDS011;17775;57.948;12.514;2022-12-18T06:18:35;51.80;;;11.32;;
31126;SDS011;17775;57.948;12.514;2022-12-18T06:21:02;45.13;;;10.75;;
31126;SDS011;17775;57.948;12.514;2022-12-18T06:23:29;44.92;;;10.57;;
31126;SDS011;17775;57.948;12.514;2022-12-18T06:25:55;43.83;;;10.18;;
31126;SDS011;17775;57.948;12.514;2022-12-18T06:28:22;43.35;;;10.43;;
31126;SDS011;17775;57.948;12.514;2022-12-18T06:30:49;45.50;;;10.35;;
31126;SDS011;17775;57.948;12.514;2022-12-18T06:33:15;40.65;;;9.88;;
31126;SDS011;17775;57.948;12.514;2022-12-18T06:35:42;41.08;;;10.20;;
31126;SDS011;17775;57.948;12.514;2022-12-18T06:38:12;41.00;;;9.82;;
31126;SDS011;17775;57.948;12.514;2022-12-18T06:40:38;43.50;;;9.68;;
31126;SDS011;17775;57.948;12.514;2022-12-18T06:43:05;32.28;;;8.82;;
31126;SDS011;17775;57.948;12.514;2022-12-18T06:45:32;41.90;;;10.30;;
31126;SDS011;17775;57.948;12.514;2022-12-18T06:47:59;33.28;;;8.35;;
31126;SDS011;17775;57.948;12.514;2022-12-18T06:50:26;28.92;;;7.88;;
31126;SDS011;17775;57.948;12.514;2022-12-18T06:52:53;46.90;;;8.27;;
31126;SDS011;17775;57.948;12.514;2022-12-18T06:55:21;36.88;;;8.25;;
31126;SDS011;17775;57.948;12.514;2022-12-18T06:57:48;33.70;;;7.68;;
31126;SDS011;17775;57.948;12.514;2022-12-18T07:00:14;27.13;;;7.28;;
31126;SDS011;17775;57.948;12.514;2022-12-18T07:02:43;37.22;;;7.97;;
31126;SDS011;17775;57.948;12.514;2022-12-18T07:05:10;35.67;;;8.57;;
31126;SDS011;17775;57.948;12.514;2022-12-18T07:07:37;29.35;;;6.50;;
31126;SDS011;17775;57.948;12.514;2022-12-18T07:10:03;27.60;;;9.20;;
31126;SDS011;17775;57.948;12.514;2022-12-18T07:12:33;38.92;;;7.60;;
31126;SDS011;17775;57.948;12.514;2022-12-18T07:14:59;24.42;;;7.13;;
31126;SDS011;17775;57.948;12.514;2022-12-18T07:17:30;30.60;;;7.40;;
31126;SDS011;17775;57.948;12.514;2022-12-18T07:19:57;27.92;;;7.97;;
31126;SDS011;17775;57.948;12.514;2022-12-18T07:22:24;25.05;;;6.90;;
31126;SDS011;17775;57.948;12.514;2022-12-18T07:24:51;33.40;;;6.80;;
31126;SDS011;17775;57.948;12.514;2022-12-18T07:27:18;20.52;;;6.43;;
31126;SDS011;17775;57.948;12.514;2022-12-18T07:29:45;28.80;;;6.95;;
31126;SDS011;17775;57.948;12.514;2022-12-18T07:32:13;23.63;;;6.47;;
31126;SDS011;17775;57.948;12.514;2022-12-18T07:34:40;28.50;;;6.13;;
31126;SDS011;17775;57.948;12.514;2022-12-18T07:37:06;32.90;;;5.53;;
31126;SDS011;17775;57.948;12.514;2022-12-18T07:39:33;24.88;;;6.28;;
31126;SDS011;17775;57.948;12.514;2022-12-18T07:42:00;20.30;;;5.68;;
31126;SDS011;17775;57.948;12.514;2022-12-18T07:44:47;19.17;;;5.03;;
31126;SDS011;17775;57.948;12.514;2022-12-18T07:47:13;24.08;;;5.65;;
31126;SDS011;17775;57.948;12.514;2022-12-18T07:49:43;22.13;;;6.10;;
31126;SDS011;17775;57.948;12.514;2022-12-18T07:52:12;23.45;;;6.65;;
31126;SDS011;17775;57.948;12.514;2022-12-18T07:54:39;18.48;;;5.55;;
31126;SDS011;17775;57.948;12.514;2022-12-18T07:57:06;26.17;;;5.82;;
31126;SDS011;17775;57.948;12.514;2022-12-18T07:59:53;20.50;;;5.65;;
31126;SDS011;17775;57.948;12.514;2022-12-18T08:02:20;26.80;;;5.90;;
31126;SDS011;17775;57.948;12.514;2022-12-18T08:04:48;23.85;;;6.00;;
31126;SDS011;17775;57.948;12.514;2022-12-18T08:07:14;24.63;;;6.40;;
31126;SDS011;17775;57.948;12.514;2022-12-18T08:09:41;20.70;;;7.32;;
31126;SDS011;17775;57.948;12.514;2022-12-18T08:12:08;22.48;;;5.20;;
31126;SDS011;17775;57.948;12.514;2022-12-18T08:14:34;23.42;;;5.07;;
31126;SDS011;17775;57.948;12.514;2022-12-18T08:17:01;26.02;;;5.53;;
31126;SDS011;17775;57.948;12.514;2022-12-18T08:19:28;26.10;;;6.30;;
31126;SDS011;17775;57.948;12.514;2022-12-18T08:21:55;20.45;;;5.43;;
31126;SDS011;17775;57.948;12.514;2022-12-18T08:24:23;18.20;;;5.53;;
31126;SDS011;17775;57.948;12.514;2022-12-18T08:26:49;20.13;;;5.60;;
31126;SDS011;17775;57.948;12.514;2022-12-18T08:29:36;24.05;;;5.78;;
31126;SDS011;17775;57.948;12.514;2022-12-18T08:32:17;19.65;;;4.70;;
31126;SDS011;17775;57.948;12.514;2022-12-18T08:34:58;22.17;;;4.93;;
31126;SDS011;17775;57.948;12.514;2022-12-18T08:37:32;23.27;;;4.85;;
31126;SDS011;17775;57.948;12.514;2022-12-18T08:40:34;27.52;;;5.30;;
31126;SDS011;17775;57.948;12.514;2022-12-18T08:43:14;18.58;;;4.75;;
31126;SDS011;17775;57.948;12.514;2022-12-18T08:46:22;16.08;;;4.10;;
31126;SDS011;17775;57.948;12.514;2022-12-18T08:48:52;21.67;;;4.35;;
31126;SDS011;17775;57.948;12.514;2022-12-18T08:51:25;23.50;;;4.70;;
31126;SDS011;17775;57.948;12.514;2022-12-18T08:53:52;17.35;;;4.15;;
31126;SDS011;17775;57.948;12.514;2022-12-18T08:56:18;15.50;;;4.85;;
31126;SDS011;17775;57.948;12.514;2022-12-18T08:58:45;19.33;;;5.70;;
31126;SDS011;17775;57.948;12.514;2022-12-18T09:01:21;22.05;;;6.10;;
31126;SDS011;17775;57.948;12.514;2022-12-18T09:03:54;21.00;;;4.60;;
31126;SDS011;17775;57.948;12.514;2022-12-18T09:06:21;22.23;;;4.35;;
31126;SDS011;17775;57.948;12.514;2022-12-18T09:08:51;21.75;;;4.72;;
31126;SDS011;17775;57.948;12.514;2022-12-18T09:11:19;17.30;;;3.83;;
31126;SDS011;17775;57.948;12.514;2022-12-18T09:13:46;11.48;;;3.63;;
31126;SDS011;17775;57.948;12.514;2022-12-18T09:16:13;17.75;;;3.45;;
31126;SDS011;17775;57.948;12.514;2022-12-18T09:18:39;14.80;;;4.30;;
31126;SDS011;17775;57.948;12.514;2022-12-18T09:21:08;17.27;;;3.80;;
31126;SDS011;17775;57.948;12.514;2022-12-18T09:23:34;20.35;;;4.18;;
31126;SDS011;17775;57.948;12.514;2022-12-18T09:26:01;18.48;;;4.18;;
31126;SDS011;17775;57.948;12.514;2022-12-18T09:28:27;22.90;;;3.80;;
31126;SDS011;17775;57.948;12.514;2022-12-18T09:30:54;20.30;;;4.18;;
31126;SDS011;17775;57.948;12.514;2022-12-18T09:33:21;21.38;;;5.82;;
31126;SDS011;17775;57.948;12.514;2022-12-18T09:35:47;23.25;;;5.53;;
31126;SDS011;17775;57.948;12.514;2022-12-18T09:38:15;20.73;;;3.83;;
31126;SDS011;17775;57.948;12.514;2022-12-18T09:40:45;15.10;;;4.18;;
31126;SDS011;17775;57.948;12.514;2022-12-18T09:43:15;18.17;;;4.55;;
31126;SDS011;17775;57.948;12.514;2022-12-18T09:45:43;14.40;;;4.00;;
31126;SDS011;17775;57.948;12.514;2022-12-18T09:48:15;21.08;;;4.97;;
31126;SDS011;17775;57.948;12.514;2022-12-18T09:50:43;21.30;;;4.82;;
31126;SDS011;17775;57.948;12.514;2022-12-18T09:53:12;21.00;;;4.40;;
31126;SDS011;17775;57.948;12.514;2022-12-18T09:55:41;21.45;;;4.78;;
31126;SDS011;17775;57.948;12.514;2022-12-18T10:00:43;26.45;;;5.25;;
31126;SDS011;17775;57.948;12.514;2022-12-18T10:03:12;22.25;;;4.78;;
31126;SDS011;17775;57.948;12.514;2022-12-18T10:10:53;20.38;;;5.43;;
31126;SDS011;17775;57.948;12.514;2022-12-18T10:20:54;23.55;;;4.28;;
31126;SDS011;17775;57.948;12.514;2022-12-18T10:26:07;20.17;;;4.13;;
31126;SDS011;17775;57.948;12.514;2022-12-18T10:28:35;21.88;;;5.18;;
31126;SDS011;17775;57.948;12.514;2022-12-18T10:31:02;18.90;;;5.43;;
31126;SDS011;17775;57.948;12.514;2022-12-18T10:33:31;28.40;;;5.45;;
31126;SDS011;17775;57.948;12.514;2022-12-18T10:36:02;17.25;;;4.68;;
31126;SDS011;17775;57.948;12.514;2022-12-18T10:38:30;18.42;;;6.40;;
31126;SDS011;17775;57.948;12.514;2022-12-18T10:40:58;25.15;;;6.07;;
31126;SDS011;17775;57.948;12.514;2022-12-18T10:43:26;29.20;;;5.55;;
31126;SDS011;17775;57.948;12.514;2022-12-18T10:45:58;39.28;;;6.82;;
31126;SDS011;17775;57.948;12.514;2022-12-18T10:48:27;20.30;;;5.30;;
31126;SDS011;17775;57.948;12.514;2022-12-18T10:50:54;24.92;;;6.50;;
31126;SDS011;17775;57.948;12.514;2022-12-18T10:53:38;26.63;;;6.78;;
31126;SDS011;17775;57.948;12.514;2022-12-18T10:56:06;28.40;;;8.18;;
31126;SDS011;17775;57.948;12.514;2022-12-18T10:58:34;25.83;;;4.20;;
31126;SDS011;17775;57.948;12.514;2022-12-18T11:03:29;16.73;;;4.07;;
31126;SDS011;17775;57.948;12.514;2022-12-18T11:06:29;21.92;;;4.28;;
31126;SDS011;17775;57.948;12.514;2022-12-18T11:09:00;19.17;;;4.90;;
31126;SDS011;17775;57.948;12.514;2022-12-18T11:11:31;20.80;;;5.10;;
31126;SDS011;17775;57.948;12.514;2022-12-18T11:16:27;17.75;;;3.72;;
31126;SDS011;17775;57.948;12.514;2022-12-18T11:18:55;14.35;;;4.88;;
31126;SDS011;17775;57.948;12.514;2022-12-18T11:23:53;17.48;;;4.75;;
31126;SDS011;17775;57.948;12.514;2022-12-18T11:26:33;17.50;;;5.40;;
31126;SDS011;17775;57.948;12.514;2022-12-18T11:29:10;17.27;;;4.97;;
31126;SDS011;17775;57.948;12.514;2022-12-18T11:31:37;20.95;;;4.68;;
31126;SDS011;17775;57.948;12.514;2022-12-18T11:34:10;25.88;;;4.55;;
31126;SDS011;17775;57.948;12.514;2022-12-18T11:36:54;17.48;;;4.18;;
31126;SDS011;17775;57.948;12.514;2022-12-18T11:39:26;28.25;;;5.05;;
31126;SDS011;17775;57.948;12.514;2022-12-18T11:42:03;16.17;;;3.53;;
31126;SDS011;17775;57.948;12.514;2022-12-18T11:47:15;16.85;;;5.40;;
31126;SDS011;17775;57.948;12.514;2022-12-18T11:49:49;10.77;;;3.80;;
31126;SDS011;17775;57.948;12.514;2022-12-18T11:54:45;15.38;;;3.78;;
31126;SDS011;17775;57.948;12.514;2022-12-18T11:59:59;15.52;;;3.22;;
31126;SDS011;17775;57.948;12.514;2022-12-18T12:13:41;13.57;;;3.50;;
31126;SDS011;17775;57.948;12.514;2022-12-18T12:16:30;18.10;;;5.18;;
31126;SDS011;17775;57.948;12.514;2022-12-18T12:19:16;11.63;;;3.78;;
31126;SDS011;17775;57.948;12.514;2022-12-18T12:21:48;11.05;;;3.20;;
31126;SDS011;17775;57.948;12.514;2022-12-18T12:24:37;14.07;;;4.25;;
31126;SDS011;17775;57.948;12.514;2022-12-18T12:29:48;15.65;;;3.30;;
31126;SDS011;17775;57.948;12.514;2022-12-18T12:37:45;14.77;;;3.58;;
31126;SDS011;17775;57.948;12.514;2022-12-18T12:40:17;13.75;;;3.45;;
31126;SDS011;17775;57.948;12.514;2022-12-18T12:43:24;14.70;;;3.50;;
31126;SDS011;17775;57.948;12.514;2022-12-18T12:45:53;10.75;;;2.92;;
31126;SDS011;17775;57.948;12.514;2022-12-18T12:50:50;19.08;;;4.22;;
31126;SDS011;17775;57.948;12.514;2022-12-18T12:53:21;18.80;;;4.10;;
31126;SDS011;17775;57.948;12.514;2022-12-18T12:55:50;9.98;;;3.20;;
31126;SDS011;17775;57.948;12.514;2022-12-18T12:58:23;18.25;;;3.83;;
31126;SDS011;17775;57.948;12.514;2022-12-18T13:00:55;14.95;;;3.45;;
31126;SDS011;17775;57.948;12.514;2022-12-18T13:06:19;15.07;;;4.38;;
31126;SDS011;17775;57.948;12.514;2022-12-18T13:08:56;23.02;;;3.85;;
31126;SDS011;17775;57.948;12.514;2022-12-18T13:11:28;14.90;;;3.72;;
31126;SDS011;17775;57.948;12.514;2022-12-18T13:14:24;13.02;;;4.05;;
31126;SDS011;17775;57.948;12.514;2022-12-18T13:16:51;22.95;;;6.30;;
31126;SDS011;17775;57.948;12.514;2022-12-18T13:19:22;23.23;;;5.18;;
31126;SDS011;17775;57.948;12.514;2022-12-18T13:24:22;17.27;;;4.22;;
31126;SDS011;17775;57.948;12.514;2022-12-18T13:26:49;15.13;;;4.32;;
31126;SDS011;17775;57.948;12.514;2022-12-18T13:32:02;16.38;;;4.63;;
31126;SDS011;17775;57.948;12.514;2022-12-18T13:34:29;18.30;;;4.93;;
31126;SDS011;17775;57.948;12.514;2022-12-18T13:37:44;11.95;;;3.63;;
31126;SDS011;17775;57.948;12.514;2022-12-18T13:39:45;20.83;;;4.55;;
31126;SDS011;17775;57.948;12.514;2022-12-18T13:44:59;15.52;;;4.88;;
31126;SDS011;17775;57.948;12.514;2022-12-18T13:47:28;14.70;;;3.25;;
31126;SDS011;17775;57.948;12.514;2022-12-18T13:49:57;9.45;;;3.38;;
31126;SDS011;17775;57.948;12.514;2022-12-18T13:52:24;16.27;;;3.95;;
31126;SDS011;17775;57.948;12.514;2022-12-18T13:54:55;13.20;;;3.20;;
31126;SDS011;17775;57.948;12.514;2022-12-18T13:57:29;13.90;;;3.95;;
31126;SDS011;17775;57.948;12.514;2022-12-18T13:59:57;14.55;;;4.00;;
31126;SDS011;17775;57.948;12.514;2022-12-18T14:02:25;12.88;;;3.63;;
31126;SDS011;17775;57.948;12.514;2022-12-18T14:04:52;21.17;;;4.38;;
31126;SDS011;17775;57.948;12.514;2022-12-18T14:07:21;19.95;;;4.05;;
31126;SDS011;17775;57.948;12.514;2022-12-18T14:09:50;14.48;;;5.15;;
31126;SDS011;17775;57.948;12.514;2022-12-18T14:12:28;13.07;;;4.07;;
31126;SDS011;17775;57.948;12.514;2022-12-18T14:15:21;15.15;;;5.07;;
31126;SDS011;17775;57.948;12.514;2022-12-18T14:20:35;15.70;;;3.80;;
31126;SDS011;17775;57.948;12.514;2022-12-18T14:23:03;15.07;;;3.40;;
31126;SDS011;17775;57.948;12.514;2022-12-18T14:25:29;10.88;;;3.67;;
31126;SDS011;17775;57.948;12.514;2022-12-18T14:30:31;14.10;;;4.53;;
31126;SDS011;17775;57.948;12.514;2022-12-18T14:35:35;11.32;;;3.78;;
31126;SDS011;17775;57.948;12.514;2022-12-18T14:40:59;10.48;;;3.33;;
31126;SDS011;17775;57.948;12.514;2022-12-18T14:43:29;18.60;;;3.80;;
31126;SDS011;17775;57.948;12.514;2022-12-18T14:45:56;10.18;;;4.30;;
31126;SDS011;17775;57.948;12.514;2022-12-18T14:50:59;13.82;;;4.63;;
31126;SDS011;17775;57.948;12.514;2022-12-18T14:55:58;13.98;;;3.70;;
31126;SDS011;17775;57.948;12.514;2022-12-18T14:58:24;10.45;;;4.15;;
31126;SDS011;17775;57.948;12.514;2022-12-18T15:00:53;18.42;;;6.68;;
31126;SDS011;17775;57.948;12.514;2022-12-18T15:03:23;12.65;;;4.07;;
31126;SDS011;17775;57.948;12.514;2022-12-18T15:05:51;10.10;;;4.25;;
31126;SDS011;17775;57.948;12.514;2022-12-18T15:08:28;13.23;;;3.97;;
31126;SDS011;17775;57.948;12.514;2022-12-18T15:10:55;12.35;;;3.90;;
31126;SDS011;17775;57.948;12.514;2022-12-18T15:13:23;15.32;;;5.47;;
31126;SDS011;17775;57.948;12.514;2022-12-18T15:15:51;14.85;;;4.25;;
31126;SDS011;17775;57.948;12.514;2022-12-18T15:18:19;15.40;;;3.88;;
31126;SDS011;17775;57.948;12.514;2022-12-18T15:20:54;20.73;;;3.75;;
31126;SDS011;17775;57.948;12.514;2022-12-18T15:23:25;10.60;;;3.72;;
31126;SDS011;17775;57.948;12.514;2022-12-18T15:25:56;11.32;;;4.28;;
31126;SDS011;17775;57.948;12.514;2022-12-18T15:28:26;7.53;;;3.63;;
31126;SDS011;17775;57.948;12.514;2022-12-18T15:36:19;12.95;;;4.32;;
31126;SDS011;17775;57.948;12.514;2022-12-18T15:38:53;14.38;;;4.70;;
31126;SDS011;17775;57.948;12.514;2022-12-18T15:41:21;14.38;;;3.67;;
31126;SDS011;17775;57.948;12.514;2022-12-18T15:43:51;19.25;;;4.15;;
31126;SDS011;17775;57.948;12.514;2022-12-18T15:46:19;15.52;;;3.90;;
31126;SDS011;17775;57.948;12.514;2022-12-18T15:48:47;15.88;;;5.00;;
31126;SDS011;17775;57.948;12.514;2022-12-18T15:51:18;14.32;;;4.50;;
31126;SDS011;17775;57.948;12.514;2022-12-18T15:53:46;14.43;;;5.00;;
31126;SDS011;17775;57.948;12.514;2022-12-18T15:56:14;14.90;;;5.22;;
31126;SDS011;17775;57.948;12.514;2022-12-18T15:59:00;23.45;;;5.18;;
31126;SDS011;17775;57.948;12.514;2022-12-18T16:01:28;14.77;;;5.82;;
31126;SDS011;17775;57.948;12.514;2022-12-18T16:03:57;17.88;;;5.38;;
31126;SDS011;17775;57.948;12.514;2022-12-18T16:06:23;16.55;;;5.45;;
31126;SDS011;17775;57.948;12.514;2022-12-18T16:08:50;13.00;;;4.72;;
31126;SDS011;17775;57.948;12.514;2022-12-18T16:11:29;20.60;;;6.18;;
31126;SDS011;17775;57.948;12.514;2022-12-18T16:14:43;23.83;;;6.57;;
31126;SDS011;17775;57.948;12.514;2022-12-18T16:17:03;23.95;;;6.68;;
31126;SDS011;17775;57.948;12.514;2022-12-18T16:19:31;21.30;;;6.68;;
31126;SDS011;17775;57.948;12.514;2022-12-18T16:21:58;28.35;;;7.65;;
31126;SDS011;17775;57.948;12.514;2022-12-18T16:24:28;32.15;;;9.77;;
31126;SDS011;17775;57.948;12.514;2022-12-18T16:26:55;28.00;;;8.38;;
31126;SDS011;17775;57.948;12.514;2022-12-18T16:29:24;28.33;;;8.65;;
31126;SDS011;17775;57.948;12.514;2022-12-18T16:31:54;42.72;;;9.68;;
31126;SDS011;17775;57.948;12.514;2022-12-18T16:34:22;33.00;;;9.85;;